Skip Navigation Links Skip Navigation Links

Current Weather

Aurora Muni, Aurora, Ill.

For information only: do not use for flight planning or navigation.
Latest weather
Observation time Saturday, August 24, 2019 11:52 PM CDT
Local time Sunday, August 25, 2019 12:13 AM CDT
Flight conditions Visual Meteorological Conditions
Winds
Wind direction Northeast (40°)
Wind speed 3 mph
Visibility 10 mi.
Sky condition
Ceiling unlimited
Sky clear
Temperature 55°F
Dewpoint 52°F
Altimeter 30.19 in.Hg
Derived measurements
Relative humidity 89%
Density altitude 329 ft.
Sea-level pressure 30.18 in.Hg
Remarks
Fully automated report.
Automated weather observing station with precipitation discriminator.
Lightning detection system not operating.
METAR KARR 250452Z AUTO 04003KT 10SM CLR 13/11 A3019 RMK AO2 SLP221 T01280111 TSNO

Settings

Location code

InnerDrive.Weather 4.0.6770.0 Release CLR 4.0.30319.42000
Copyright ©2018 Inner Drive Technology. All rights reserved. Portions Copyright ©1986-2018 David Braverman.

Find weather

Site navigation


Skip Navigation Links

Place info

Page info

PayPal - The safer, easier way to pay online!

Return home.

Copyright ©2019 Inner Drive Technology. Purveyors of fine, hand-crafted computer software. Page printed 2019-08-25T05:13:14 UTC.